sensor_id;sensor_type;location;lat;lon;timestamp;P1;durP1;ratioP1;P2;durP2;ratioP2
55134;SDS011;41031;44.750;11.308;2023-03-29T00:02:12;9.63;;;5.87;;
55134;SDS011;41031;44.750;11.308;2023-03-29T00:04:39;9.70;;;6.00;;
55134;SDS011;41031;44.750;11.308;2023-03-29T00:07:07;10.17;;;6.07;;
55134;SDS011;41031;44.750;11.308;2023-03-29T00:09:34;8.30;;;5.47;;
55134;SDS011;41031;44.750;11.308;2023-03-29T00:12:01;8.27;;;5.50;;
55134;SDS011;41031;44.750;11.308;2023-03-29T00:14:28;9.53;;;6.10;;
55134;SDS011;41031;44.750;11.308;2023-03-29T00:16:56;7.70;;;5.53;;
55134;SDS011;41031;44.750;11.308;2023-03-29T00:19:23;6.83;;;5.53;;
55134;SDS011;41031;44.750;11.308;2023-03-29T00:21:51;8.63;;;5.60;;
55134;SDS011;41031;44.750;11.308;2023-03-29T00:24:18;8.73;;;6.03;;
55134;SDS011;41031;44.750;11.308;2023-03-29T00:26:46;8.47;;;5.97;;
55134;SDS011;41031;44.750;11.308;2023-03-29T00:29:14;7.67;;;5.87;;
55134;SDS011;41031;44.750;11.308;2023-03-29T00:31:42;10.13;;;6.20;;
55134;SDS011;41031;44.750;11.308;2023-03-29T00:34:21;10.33;;;6.53;;
55134;SDS011;41031;44.750;11.308;2023-03-29T00:36:49;7.73;;;6.07;;
55134;SDS011;41031;44.750;11.308;2023-03-29T00:39:16;9.07;;;6.90;;
55134;SDS011;41031;44.750;11.308;2023-03-29T00:41:45;9.10;;;6.73;;
55134;SDS011;41031;44.750;11.308;2023-03-29T00:44:51;10.00;;;6.37;;
55134;SDS011;41031;44.750;11.308;2023-03-29T00:47:53;8.47;;;6.37;;
55134;SDS011;41031;44.750;11.308;2023-03-29T00:50:24;10.47;;;7.20;;
55134;SDS011;41031;44.750;11.308;2023-03-29T00:53:02;11.03;;;7.20;;
55134;SDS011;41031;44.750;11.308;2023-03-29T00:55:42;10.33;;;7.27;;
55134;SDS011;41031;44.750;11.308;2023-03-29T00:58:21;11.23;;;7.53;;
55134;SDS011;41031;44.750;11.308;2023-03-29T01:00:59;11.20;;;6.80;;
55134;SDS011;41031;44.750;11.308;2023-03-29T01:03:32;14.63;;;7.10;;
55134;SDS011;41031;44.750;11.308;2023-03-29T01:06:07;8.90;;;6.40;;
55134;SDS011;41031;44.750;11.308;2023-03-29T01:08:57;12.40;;;6.70;;
55134;SDS011;41031;44.750;11.308;2023-03-29T01:11:29;10.93;;;6.83;;
55134;SDS011;41031;44.750;11.308;2023-03-29T01:14:13;12.27;;;7.43;;
55134;SDS011;41031;44.750;11.308;2023-03-29T01:16:49;9.83;;;7.20;;
55134;SDS011;41031;44.750;11.308;2023-03-29T01:19:17;9.17;;;7.37;;
55134;SDS011;41031;44.750;11.308;2023-03-29T01:24:42;13.13;;;7.53;;
55134;SDS011;41031;44.750;11.308;2023-03-29T01:27:38;11.20;;;7.20;;
55134;SDS011;41031;44.750;11.308;2023-03-29T01:31:10;11.97;;;6.63;;
55134;SDS011;41031;44.750;11.308;2023-03-29T01:33:39;11.87;;;6.63;;
55134;SDS011;41031;44.750;11.308;2023-03-29T01:36:15;9.27;;;6.93;;
55134;SDS011;41031;44.750;11.308;2023-03-29T01:38:49;9.03;;;6.90;;
55134;SDS011;41031;44.750;11.308;2023-03-29T01:41:21;14.93;;;7.13;;
55134;SDS011;41031;44.750;11.308;2023-03-29T01:44:11;11.93;;;7.20;;
55134;SDS011;41031;44.750;11.308;2023-03-29T01:46:44;8.93;;;6.93;;
55134;SDS011;41031;44.750;11.308;2023-03-29T01:52:22;13.67;;;7.07;;
55134;SDS011;41031;44.750;11.308;2023-03-29T01:55:19;12.43;;;8.83;;
55134;SDS011;41031;44.750;11.308;2023-03-29T01:57:49;12.93;;;7.30;;
55134;SDS011;41031;44.750;11.308;2023-03-29T02:00:21;11.40;;;7.03;;
55134;SDS011;41031;44.750;11.308;2023-03-29T02:02:51;8.27;;;6.60;;
55134;SDS011;41031;44.750;11.308;2023-03-29T02:05:23;9.00;;;7.10;;
55134;SDS011;41031;44.750;11.308;2023-03-29T02:07:56;8.60;;;7.17;;
55134;SDS011;41031;44.750;11.308;2023-03-29T02:10:25;8.53;;;7.10;;
55134;SDS011;41031;44.750;11.308;2023-03-29T02:12:53;8.70;;;6.97;;
55134;SDS011;41031;44.750;11.308;2023-03-29T02:15:20;9.40;;;7.17;;
55134;SDS011;41031;44.750;11.308;2023-03-29T02:17:49;11.73;;;7.70;;
55134;SDS011;41031;44.750;11.308;2023-03-29T02:25:49;10.43;;;7.30;;
55134;SDS011;41031;44.750;11.308;2023-03-29T02:28:23;10.97;;;7.47;;
55134;SDS011;41031;44.750;11.308;2023-03-29T02:30:56;11.53;;;7.03;;
55134;SDS011;41031;44.750;11.308;2023-03-29T02:36:18;11.43;;;7.67;;
55134;SDS011;41031;44.750;11.308;2023-03-29T02:38:57;9.43;;;6.97;;
55134;SDS011;41031;44.750;11.308;2023-03-29T02:41:27;15.33;;;6.87;;
55134;SDS011;41031;44.750;11.308;2023-03-29T02:43:54;10.83;;;7.17;;
55134;SDS011;41031;44.750;11.308;2023-03-29T02:46:23;7.97;;;7.07;;
55134;SDS011;41031;44.750;11.308;2023-03-29T02:48:51;6.97;;;6.13;;
55134;SDS011;41031;44.750;11.308;2023-03-29T02:51:21;9.07;;;7.30;;
55134;SDS011;41031;44.750;11.308;2023-03-29T02:53:56;9.53;;;6.60;;
55134;SDS011;41031;44.750;11.308;2023-03-29T02:56:25;8.77;;;6.60;;
55134;SDS011;41031;44.750;11.308;2023-03-29T02:58:52;13.30;;;7.67;;
55134;SDS011;41031;44.750;11.308;2023-03-29T03:01:19;7.77;;;6.50;;
55134;SDS011;41031;44.750;11.308;2023-03-29T03:03:48;7.60;;;6.17;;
55134;SDS011;41031;44.750;11.308;2023-03-29T03:06:17;9.83;;;6.70;;
55134;SDS011;41031;44.750;11.308;2023-03-29T03:08:46;9.87;;;6.27;;
55134;SDS011;41031;44.750;11.308;2023-03-29T03:11:13;9.17;;;6.77;;
55134;SDS011;41031;44.750;11.308;2023-03-29T03:13:40;8.80;;;6.47;;
55134;SDS011;41031;44.750;11.308;2023-03-29T03:16:07;11.93;;;6.53;;
55134;SDS011;41031;44.750;11.308;2023-03-29T03:18:35;9.57;;;6.60;;
55134;SDS011;41031;44.750;11.308;2023-03-29T03:21:04;10.07;;;7.30;;
55134;SDS011;41031;44.750;11.308;2023-03-29T03:23:31;8.53;;;6.63;;
55134;SDS011;41031;44.750;11.308;2023-03-29T03:25:58;9.20;;;6.63;;
55134;SDS011;41031;44.750;11.308;2023-03-29T03:28:25;8.87;;;6.53;;
55134;SDS011;41031;44.750;11.308;2023-03-29T03:30:54;7.43;;;6.37;;
55134;SDS011;41031;44.750;11.308;2023-03-29T03:33:50;8.77;;;6.70;;
55134;SDS011;41031;44.750;11.308;2023-03-29T03:36:31;8.87;;;6.30;;
55134;SDS011;41031;44.750;11.308;2023-03-29T03:39:00;8.90;;;6.60;;
55134;SDS011;41031;44.750;11.308;2023-03-29T03:41:32;8.90;;;6.93;;
55134;SDS011;41031;44.750;11.308;2023-03-29T03:43:59;6.93;;;6.03;;
55134;SDS011;41031;44.750;11.308;2023-03-29T03:46:27;7.70;;;6.33;;
55134;SDS011;41031;44.750;11.308;2023-03-29T03:48:55;9.07;;;6.37;;
55134;SDS011;41031;44.750;11.308;2023-03-29T03:51:32;6.70;;;6.03;;
55134;SDS011;41031;44.750;11.308;2023-03-29T03:54:00;8.83;;;6.13;;
55134;SDS011;41031;44.750;11.308;2023-03-29T03:56:50;6.63;;;5.93;;
55134;SDS011;41031;44.750;11.308;2023-03-29T03:59:37;7.33;;;5.93;;
55134;SDS011;41031;44.750;11.308;2023-03-29T04:02:09;7.53;;;6.53;;
55134;SDS011;41031;44.750;11.308;2023-03-29T04:04:37;6.77;;;5.80;;
55134;SDS011;41031;44.750;11.308;2023-03-29T04:07:15;7.00;;;6.30;;
55134;SDS011;41031;44.750;11.308;2023-03-29T04:09:55;12.17;;;6.17;;
55134;SDS011;41031;44.750;11.308;2023-03-29T04:12:40;7.97;;;5.80;;
55134;SDS011;41031;44.750;11.308;2023-03-29T04:15:08;7.57;;;5.40;;
55134;SDS011;41031;44.750;11.308;2023-03-29T04:17:38;9.00;;;5.47;;
55134;SDS011;41031;44.750;11.308;2023-03-29T04:20:17;10.60;;;5.87;;
55134;SDS011;41031;44.750;11.308;2023-03-29T04:22:44;7.40;;;6.27;;
55134;SDS011;41031;44.750;11.308;2023-03-29T04:25:11;9.93;;;5.30;;
55134;SDS011;41031;44.750;11.308;2023-03-29T04:27:48;8.70;;;5.97;;
55134;SDS011;41031;44.750;11.308;2023-03-29T04:30:34;7.37;;;5.67;;
55134;SDS011;41031;44.750;11.308;2023-03-29T04:33:10;10.80;;;6.17;;
55134;SDS011;41031;44.750;11.308;2023-03-29T04:35:40;9.47;;;5.60;;
55134;SDS011;41031;44.750;11.308;2023-03-29T04:38:12;8.50;;;5.70;;
55134;SDS011;41031;44.750;11.308;2023-03-29T04:40:40;8.17;;;5.87;;
55134;SDS011;41031;44.750;11.308;2023-03-29T04:43:45;7.70;;;5.80;;
55134;SDS011;41031;44.750;11.308;2023-03-29T04:46:20;8.50;;;6.77;;
55134;SDS011;41031;44.750;11.308;2023-03-29T04:49:09;12.13;;;6.10;;
55134;SDS011;41031;44.750;11.308;2023-03-29T04:51:39;9.23;;;5.60;;
55134;SDS011;41031;44.750;11.308;2023-03-29T04:54:08;8.97;;;6.30;;
55134;SDS011;41031;44.750;11.308;2023-03-29T04:57:00;9.77;;;6.27;;
55134;SDS011;41031;44.750;11.308;2023-03-29T04:59:48;7.37;;;6.13;;
55134;SDS011;41031;44.750;11.308;2023-03-29T05:02:30;11.47;;;6.03;;
55134;SDS011;41031;44.750;11.308;2023-03-29T05:04:58;9.83;;;5.73;;
55134;SDS011;41031;44.750;11.308;2023-03-29T05:07:25;11.53;;;6.57;;
55134;SDS011;41031;44.750;11.308;2023-03-29T05:09:53;8.80;;;6.53;;
55134;SDS011;41031;44.750;11.308;2023-03-29T05:12:20;6.97;;;5.40;;
55134;SDS011;41031;44.750;11.308;2023-03-29T05:14:52;7.93;;;5.80;;
55134;SDS011;41031;44.750;11.308;2023-03-29T05:17:22;11.63;;;6.07;;
55134;SDS011;41031;44.750;11.308;2023-03-29T05:19:55;11.33;;;6.67;;
55134;SDS011;41031;44.750;11.308;2023-03-29T05:22:24;8.63;;;5.70;;
55134;SDS011;41031;44.750;11.308;2023-03-29T05:24:51;8.57;;;6.27;;
55134;SDS011;41031;44.750;11.308;2023-03-29T05:27:19;10.40;;;6.60;;
55134;SDS011;41031;44.750;11.308;2023-03-29T05:29:59;10.60;;;7.03;;
55134;SDS011;41031;44.750;11.308;2023-03-29T05:32:34;9.47;;;6.83;;
55134;SDS011;41031;44.750;11.308;2023-03-29T05:35:03;11.20;;;7.93;;
55134;SDS011;41031;44.750;11.308;2023-03-29T05:37:32;9.73;;;6.47;;
55134;SDS011;41031;44.750;11.308;2023-03-29T05:40:01;12.67;;;6.13;;
55134;SDS011;41031;44.750;11.308;2023-03-29T05:42:56;9.23;;;6.53;;
55134;SDS011;41031;44.750;11.308;2023-03-29T05:45:24;13.87;;;6.97;;
55134;SDS011;41031;44.750;11.308;2023-03-29T05:47:54;12.03;;;7.17;;
55134;SDS011;41031;44.750;11.308;2023-03-29T05:50:23;11.23;;;7.37;;
55134;SDS011;41031;44.750;11.308;2023-03-29T05:52:50;9.47;;;6.67;;
55134;SDS011;41031;44.750;11.308;2023-03-29T05:55:17;9.10;;;5.77;;
55134;SDS011;41031;44.750;11.308;2023-03-29T05:57:44;9.57;;;7.03;;
55134;SDS011;41031;44.750;11.308;2023-03-29T06:00:12;13.63;;;5.80;;
55134;SDS011;41031;44.750;11.308;2023-03-29T06:02:48;9.30;;;5.57;;
55134;SDS011;41031;44.750;11.308;2023-03-29T06:05:19;8.40;;;6.63;;
55134;SDS011;41031;44.750;11.308;2023-03-29T06:07:57;11.53;;;5.17;;
55134;SDS011;41031;44.750;11.308;2023-03-29T06:10:47;7.83;;;4.23;;
55134;SDS011;41031;44.750;11.308;2023-03-29T06:13:25;7.93;;;4.20;;
55134;SDS011;41031;44.750;11.308;2023-03-29T06:15:53;6.77;;;3.80;;
55134;SDS011;41031;44.750;11.308;2023-03-29T06:18:23;7.53;;;4.13;;
55134;SDS011;41031;44.750;11.308;2023-03-29T06:20:50;7.73;;;4.03;;
55134;SDS011;41031;44.750;11.308;2023-03-29T06:23:18;8.37;;;5.00;;
55134;SDS011;41031;44.750;11.308;2023-03-29T06:25:47;6.37;;;3.87;;
55134;SDS011;41031;44.750;11.308;2023-03-29T06:28:16;6.77;;;3.77;;
55134;SDS011;41031;44.750;11.308;2023-03-29T06:30:44;6.97;;;3.70;;
55134;SDS011;41031;44.750;11.308;2023-03-29T06:33:13;6.27;;;4.33;;
55134;SDS011;41031;44.750;11.308;2023-03-29T06:36:01;9.13;;;3.70;;
55134;SDS011;41031;44.750;11.308;2023-03-29T06:38:29;9.50;;;4.67;;
55134;SDS011;41031;44.750;11.308;2023-03-29T06:41:03;7.73;;;3.73;;
55134;SDS011;41031;44.750;11.308;2023-03-29T06:44:11;8.30;;;3.97;;
55134;SDS011;41031;44.750;11.308;2023-03-29T06:46:52;5.63;;;3.57;;
55134;SDS011;41031;44.750;11.308;2023-03-29T06:49:19;5.30;;;3.23;;
55134;SDS011;41031;44.750;11.308;2023-03-29T06:52:16;5.00;;;4.10;;
55134;SDS011;41031;44.750;11.308;2023-03-29T06:54:44;8.00;;;4.40;;
55134;SDS011;41031;44.750;11.308;2023-03-29T06:57:11;5.07;;;3.53;;
55134;SDS011;41031;44.750;11.308;2023-03-29T06:59:39;5.37;;;3.63;;
55134;SDS011;41031;44.750;11.308;2023-03-29T07:02:19;11.87;;;4.73;;
55134;SDS011;41031;44.750;11.308;2023-03-29T07:04:54;6.63;;;4.60;;
55134;SDS011;41031;44.750;11.308;2023-03-29T07:07:26;5.97;;;3.73;;
55134;SDS011;41031;44.750;11.308;2023-03-29T07:10:12;6.77;;;4.27;;
55134;SDS011;41031;44.750;11.308;2023-03-29T07:12:58;7.13;;;4.80;;
55134;SDS011;41031;44.750;11.308;2023-03-29T07:15:27;5.70;;;4.00;;
55134;SDS011;41031;44.750;11.308;2023-03-29T07:18:13;6.43;;;4.20;;
55134;SDS011;41031;44.750;11.308;2023-03-29T07:20:40;9.80;;;3.90;;
55134;SDS011;41031;44.750;11.308;2023-03-29T07:23:08;6.20;;;4.37;;
55134;SDS011;41031;44.750;11.308;2023-03-29T07:25:36;6.43;;;4.17;;
55134;SDS011;41031;44.750;11.308;2023-03-29T07:28:04;6.33;;;4.00;;
55134;SDS011;41031;44.750;11.308;2023-03-29T07:30:32;6.80;;;4.10;;
55134;SDS011;41031;44.750;11.308;2023-03-29T07:33:14;5.27;;;4.77;;
55134;SDS011;41031;44.750;11.308;2023-03-29T07:35:47;7.93;;;4.43;;
55134;SDS011;41031;44.750;11.308;2023-03-29T07:38:14;6.80;;;4.70;;
55134;SDS011;41031;44.750;11.308;2023-03-29T07:40:47;7.93;;;4.27;;
55134;SDS011;41031;44.750;11.308;2023-03-29T07:43:32;6.03;;;3.97;;
55134;SDS011;41031;44.750;11.308;2023-03-29T07:46:03;4.17;;;3.53;;
55134;SDS011;41031;44.750;11.308;2023-03-29T07:48:33;5.07;;;4.00;;
55134;SDS011;41031;44.750;11.308;2023-03-29T07:51:05;4.50;;;3.90;;
55134;SDS011;41031;44.750;11.308;2023-03-29T07:53:43;5.80;;;4.50;;
55134;SDS011;41031;44.750;11.308;2023-03-29T07:56:29;7.27;;;4.37;;
55134;SDS011;41031;44.750;11.308;2023-03-29T07:59:19;8.63;;;4.43;;
55134;SDS011;41031;44.750;11.308;2023-03-29T08:01:59;5.97;;;4.43;;
55134;SDS011;41031;44.750;11.308;2023-03-29T08:04:33;5.10;;;4.00;;
55134;SDS011;41031;44.750;11.308;2023-03-29T08:07:14;7.70;;;5.03;;
55134;SDS011;41031;44.750;11.308;2023-03-29T08:10:05;5.83;;;4.53;;
55134;SDS011;41031;44.750;11.308;2023-03-29T08:12:57;6.67;;;5.30;;
55134;SDS011;41031;44.750;11.308;2023-03-29T08:15:32;7.33;;;5.43;;
55134;SDS011;41031;44.750;11.308;2023-03-29T08:18:16;7.67;;;5.13;;
55134;SDS011;41031;44.750;11.308;2023-03-29T08:20:43;8.60;;;5.40;;
55134;SDS011;41031;44.750;11.308;2023-03-29T08:23:11;7.00;;;5.23;;
55134;SDS011;41031;44.750;11.308;2023-03-29T08:25:58;7.20;;;5.43;;
55134;SDS011;41031;44.750;11.308;2023-03-29T08:28:25;6.33;;;5.40;;
55134;SDS011;41031;44.750;11.308;2023-03-29T08:30:53;7.50;;;4.97;;
55134;SDS011;41031;44.750;11.308;2023-03-29T08:33:21;6.83;;;5.20;;
55134;SDS011;41031;44.750;11.308;2023-03-29T08:35:58;9.90;;;5.73;;
55134;SDS011;41031;44.750;11.308;2023-03-29T08:38:29;7.93;;;5.83;;
55134;SDS011;41031;44.750;11.308;2023-03-29T08:40:56;6.43;;;5.20;;
55134;SDS011;41031;44.750;11.308;2023-03-29T08:46:36;7.43;;;5.57;;
55134;SDS011;41031;44.750;11.308;2023-03-29T08:49:35;6.93;;;5.50;;
55134;SDS011;41031;44.750;11.308;2023-03-29T08:52:11;6.20;;;5.30;;
55134;SDS011;41031;44.750;11.308;2023-03-29T08:55:16;6.40;;;5.40;;
55134;SDS011;41031;44.750;11.308;2023-03-29T08:58:33;29.63;;;12.60;;
55134;SDS011;41031;44.750;11.308;2023-03-29T09:01:03;7.70;;;6.67;;
55134;SDS011;41031;44.750;11.308;2023-03-29T09:03:46;9.77;;;6.37;;
55134;SDS011;41031;44.750;11.308;2023-03-29T09:06:30;6.23;;;5.40;;
55134;SDS011;41031;44.750;11.308;2023-03-29T09:09:12;16.80;;;11.17;;
55134;SDS011;41031;44.750;11.308;2023-03-29T09:11:51;10.53;;;8.27;;
55134;SDS011;41031;44.750;11.308;2023-03-29T09:23:20;11.47;;;5.67;;
55134;SDS011;41031;44.750;11.308;2023-03-29T09:32:21;6.03;;;5.27;;
55134;SDS011;41031;44.750;11.308;2023-03-29T09:35:06;6.57;;;5.67;;
55134;SDS011;41031;44.750;11.308;2023-03-29T09:37:50;6.73;;;5.30;;
55134;SDS011;41031;44.750;11.308;2023-03-29T09:40:21;7.67;;;6.57;;
55134;SDS011;41031;44.750;11.308;2023-03-29T09:43:17;6.83;;;5.60;;
55134;SDS011;41031;44.750;11.308;2023-03-29T09:45:52;6.80;;;5.67;;
55134;SDS011;41031;44.750;11.308;2023-03-29T09:48:22;9.17;;;5.60;;
55134;SDS011;41031;44.750;11.308;2023-03-29T09:50:55;6.47;;;5.20;;
55134;SDS011;41031;44.750;11.308;2023-03-29T09:53:22;6.27;;;5.13;;
55134;SDS011;41031;44.750;11.308;2023-03-29T09:56:06;5.43;;;4.93;;
55134;SDS011;41031;44.750;11.308;2023-03-29T09:58:44;7.50;;;5.80;;
55134;SDS011;41031;44.750;11.308;2023-03-29T10:01:15;5.33;;;4.83;;
55134;SDS011;41031;44.750;11.308;2023-03-29T10:03:52;6.53;;;5.47;;
55134;SDS011;41031;44.750;11.308;2023-03-29T10:06:22;5.47;;;4.97;;
55134;SDS011;41031;44.750;11.308;2023-03-29T10:08:55;4.83;;;4.30;;
55134;SDS011;41031;44.750;11.308;2023-03-29T10:11:35;6.77;;;4.73;;
55134;SDS011;41031;44.750;11.308;2023-03-29T10:14:04;4.77;;;3.73;;
55134;SDS011;41031;44.750;11.308;2023-03-29T10:16:39;7.13;;;4.53;;
55134;SDS011;41031;44.750;11.308;2023-03-29T10:21:48;3.90;;;2.90;;
55134;SDS011;41031;44.750;11.308;2023-03-29T10:24:19;4.27;;;3.37;;
55134;SDS011;41031;44.750;11.308;2023-03-29T10:26:47;4.60;;;3.60;;
55134;SDS011;41031;44.750;11.308;2023-03-29T10:29:21;6.90;;;4.07;;
55134;SDS011;41031;44.750;11.308;2023-03-29T10:31:50;4.23;;;3.50;;
55134;SDS011;41031;44.750;11.308;2023-03-29T10:34:18;6.27;;;3.37;;
55134;SDS011;41031;44.750;11.308;2023-03-29T10:36:52;5.07;;;3.60;;
55134;SDS011;41031;44.750;11.308;2023-03-29T10:39:26;4.70;;;3.80;;
55134;SDS011;41031;44.750;11.308;2023-03-29T10:41:58;4.70;;;3.87;;
55134;SDS011;41031;44.750;11.308;2023-03-29T10:44:30;6.20;;;3.50;;
55134;SDS011;41031;44.750;11.308;2023-03-29T10:47:06;9.50;;;3.70;;
55134;SDS011;41031;44.750;11.308;2023-03-29T10:49:43;5.53;;;3.40;;
55134;SDS011;41031;44.750;11.308;2023-03-29T10:52:23;4.50;;;3.57;;
55134;SDS011;41031;44.750;11.308;2023-03-29T10:54:50;6.83;;;3.43;;
55134;SDS011;41031;44.750;11.308;2023-03-29T10:57:44;5.17;;;3.03;;
55134;SDS011;41031;44.750;11.308;2023-03-29T11:00:26;3.57;;;3.27;;
55134;SDS011;41031;44.750;11.308;2023-03-29T11:03:02;5.27;;;3.47;;
55134;SDS011;41031;44.750;11.308;2023-03-29T11:08:42;5.47;;;4.33;;
55134;SDS011;41031;44.750;11.308;2023-03-29T11:22:06;5.90;;;4.30;;
55134;SDS011;41031;44.750;11.308;2023-03-29T11:27:53;7.00;;;4.37;;
55134;SDS011;41031;44.750;11.308;2023-03-29T11:38:56;7.57;;;5.13;;
55134;SDS011;41031;44.750;11.308;2023-03-29T11:41:42;10.83;;;5.03;;
55134;SDS011;41031;44.750;11.308;2023-03-29T11:44:15;6.70;;;3.93;;
55134;SDS011;41031;44.750;11.308;2023-03-29T11:46:53;5.10;;;4.23;;
55134;SDS011;41031;44.750;11.308;2023-03-29T11:49:44;6.37;;;4.20;;
55134;SDS011;41031;44.750;11.308;2023-03-29T11:52:17;6.27;;;4.60;;
55134;SDS011;41031;44.750;11.308;2023-03-29T11:55:07;7.47;;;3.80;;
55134;SDS011;41031;44.750;11.308;2023-03-29T11:57:50;6.40;;;4.50;;
55134;SDS011;41031;44.750;11.308;2023-03-29T12:00:24;7.23;;;4.37;;
55134;SDS011;41031;44.750;11.308;2023-03-29T12:03:54;10.03;;;4.73;;
55134;SDS011;41031;44.750;11.308;2023-03-29T12:05:51;5.07;;;4.53;;
55134;SDS011;41031;44.750;11.308;2023-03-29T12:08:28;6.57;;;4.47;;
55134;SDS011;41031;44.750;11.308;2023-03-29T12:13:52;7.47;;;4.60;;
55134;SDS011;41031;44.750;11.308;2023-03-29T12:16:45;6.90;;;4.37;;
55134;SDS011;41031;44.750;11.308;2023-03-29T12:19:30;5.17;;;3.60;;
55134;SDS011;41031;44.750;11.308;2023-03-29T12:22:08;8.27;;;4.50;;
55134;SDS011;41031;44.750;11.308;2023-03-29T12:24:39;7.90;;;4.50;;
55134;SDS011;41031;44.750;11.308;2023-03-29T12:30:34;5.87;;;4.47;;
55134;SDS011;41031;44.750;11.308;2023-03-29T12:39:22;7.77;;;4.90;;
55134;SDS011;41031;44.750;11.308;2023-03-29T12:44:58;6.33;;;4.90;;
55134;SDS011;41031;44.750;11.308;2023-03-29T12:47:35;8.70;;;5.30;;
55134;SDS011;41031;44.750;11.308;2023-03-29T12:50:31;9.53;;;4.70;;
55134;SDS011;41031;44.750;11.308;2023-03-29T12:53:02;10.00;;;4.80;;
55134;SDS011;41031;44.750;11.308;2023-03-29T12:58:31;8.93;;;5.10;;
55134;SDS011;41031;44.750;11.308;2023-03-29T13:04:08;7.67;;;4.70;;
55134;SDS011;41031;44.750;11.308;2023-03-29T13:11:56;5.37;;;4.30;;
55134;SDS011;41031;44.750;11.308;2023-03-29T13:14:48;7.73;;;4.70;;
55134;SDS011;41031;44.750;11.308;2023-03-29T13:20:34;7.30;;;4.63;;
55134;SDS011;41031;44.750;11.308;2023-03-29T13:34:55;6.30;;;4.10;;
55134;SDS011;41031;44.750;11.308;2023-03-29T13:48:26;10.87;;;4.90;;
55134;SDS011;41031;44.750;11.308;2023-03-29T13:53:40;7.27;;;4.53;;
55134;SDS011;41031;44.750;11.308;2023-03-29T13:56:24;7.03;;;4.07;;
55134;SDS011;41031;44.750;11.308;2023-03-29T14:01:50;7.20;;;3.80;;
55134;SDS011;41031;44.750;11.308;2023-03-29T14:04:24;7.03;;;3.50;;
55134;SDS011;41031;44.750;11.308;2023-03-29T14:07:05;5.87;;;3.27;;
55134;SDS011;41031;44.750;11.308;2023-03-29T14:09:38;7.30;;;3.47;;
55134;SDS011;41031;44.750;11.308;2023-03-29T14:12:10;6.77;;;3.60;;
55134;SDS011;41031;44.750;11.308;2023-03-29T14:14:41;10.73;;;3.67;;
55134;SDS011;41031;44.750;11.308;2023-03-29T14:17:24;5.17;;;3.70;;
55134;SDS011;41031;44.750;11.308;2023-03-29T14:19:52;4.57;;;3.83;;
55134;SDS011;41031;44.750;11.308;2023-03-29T14:22:23;10.60;;;3.70;;
55134;SDS011;41031;44.750;11.308;2023-03-29T14:24:54;7.77;;;4.07;;
55134;SDS011;41031;44.750;11.308;2023-03-29T14:27:28;9.17;;;3.50;;
55134;SDS011;41031;44.750;11.308;2023-03-29T14:29:57;5.57;;;3.73;;
55134;SDS011;41031;44.750;11.308;2023-03-29T14:32:28;6.87;;;4.43;;
55134;SDS011;41031;44.750;11.308;2023-03-29T14:34:56;4.33;;;3.77;;
55134;SDS011;41031;44.750;11.308;2023-03-29T14:37:26;8.37;;;3.80;;
55134;SDS011;41031;44.750;11.308;2023-03-29T14:39:54;5.57;;;3.60;;
55134;SDS011;41031;44.750;11.308;2023-03-29T14:42:24;5.07;;;3.67;;
55134;SDS011;41031;44.750;11.308;2023-03-29T14:44:57;5.10;;;3.37;;
55134;SDS011;41031;44.750;11.308;2023-03-29T14:47:31;5.80;;;3.00;;
55134;SDS011;41031;44.750;11.308;2023-03-29T14:49:59;5.77;;;3.17;;
55134;SDS011;41031;44.750;11.308;2023-03-29T14:52:27;5.37;;;3.20;;
55134;SDS011;41031;44.750;11.308;2023-03-29T14:54:57;10.27;;;3.40;;
55134;SDS011;41031;44.750;11.308;2023-03-29T14:57:26;4.67;;;2.83;;
55134;SDS011;41031;44.750;11.308;2023-03-29T15:00:00;5.83;;;3.40;;
55134;SDS011;41031;44.750;11.308;2023-03-29T15:02:34;7.90;;;3.10;;
55134;SDS011;41031;44.750;11.308;2023-03-29T15:05:04;4.53;;;2.90;;
55134;SDS011;41031;44.750;11.308;2023-03-29T15:07:50;5.70;;;2.90;;
55134;SDS011;41031;44.750;11.308;2023-03-29T15:10:21;5.33;;;2.80;;
55134;SDS011;41031;44.750;11.308;2023-03-29T15:12:49;5.97;;;2.77;;
55134;SDS011;41031;44.750;11.308;2023-03-29T15:15:17;6.30;;;2.53;;
55134;SDS011;41031;44.750;11.308;2023-03-29T15:17:44;4.57;;;2.80;;
55134;SDS011;41031;44.750;11.308;2023-03-29T15:20:25;4.07;;;2.80;;
55134;SDS011;41031;44.750;11.308;2023-03-29T15:25:54;4.73;;;2.73;;
55134;SDS011;41031;44.750;11.308;2023-03-29T15:31:02;5.40;;;3.00;;
55134;SDS011;41031;44.750;11.308;2023-03-29T15:33:36;5.63;;;3.17;;
55134;SDS011;41031;44.750;11.308;2023-03-29T15:36:08;5.40;;;2.90;;
55134;SDS011;41031;44.750;11.308;2023-03-29T15:38:37;5.23;;;3.40;;
55134;SDS011;41031;44.750;11.308;2023-03-29T15:41:11;9.30;;;2.80;;
55134;SDS011;41031;44.750;11.308;2023-03-29T15:43:39;7.73;;;2.50;;
55134;SDS011;41031;44.750;11.308;2023-03-29T15:46:07;4.80;;;2.37;;
55134;SDS011;41031;44.750;11.308;2023-03-29T15:48:36;6.80;;;2.40;;
55134;SDS011;41031;44.750;11.308;2023-03-29T15:51:03;7.60;;;3.00;;
55134;SDS011;41031;44.750;11.308;2023-03-29T15:53:32;4.60;;;2.40;;
55134;SDS011;41031;44.750;11.308;2023-03-29T15:56:00;4.20;;;2.37;;
55134;SDS011;41031;44.750;11.308;2023-03-29T15:58:31;2.30;;;2.10;;
55134;SDS011;41031;44.750;11.308;2023-03-29T16:03:44;6.03;;;3.13;;
55134;SDS011;41031;44.750;11.308;2023-03-29T16:06:13;5.40;;;3.17;;
55134;SDS011;41031;44.750;11.308;2023-03-29T16:08:42;6.90;;;3.30;;
55134;SDS011;41031;44.750;11.308;2023-03-29T16:11:10;8.63;;;2.80;;
55134;SDS011;41031;44.750;11.308;2023-03-29T16:13:37;7.63;;;3.20;;
55134;SDS011;41031;44.750;11.308;2023-03-29T16:16:04;6.13;;;2.60;;
55134;SDS011;41031;44.750;11.308;2023-03-29T16:18:32;5.40;;;2.90;;
55134;SDS011;41031;44.750;11.308;2023-03-29T16:20:59;4.43;;;3.00;;
55134;SDS011;41031;44.750;11.308;2023-03-29T16:23:26;4.30;;;2.70;;
55134;SDS011;41031;44.750;11.308;2023-03-29T16:25:53;8.03;;;3.27;;
55134;SDS011;41031;44.750;11.308;2023-03-29T16:28:21;3.73;;;2.60;;
55134;SDS011;41031;44.750;11.308;2023-03-29T16:30:48;4.43;;;3.17;;
55134;SDS011;41031;44.750;11.308;2023-03-29T16:33:15;7.37;;;3.07;;
55134;SDS011;41031;44.750;11.308;2023-03-29T16:35:42;4.40;;;2.90;;
55134;SDS011;41031;44.750;11.308;2023-03-29T16:38:09;5.13;;;2.77;;
55134;SDS011;41031;44.750;11.308;2023-03-29T16:40:36;4.20;;;2.60;;
55134;SDS011;41031;44.750;11.308;2023-03-29T16:43:03;4.57;;;2.40;;
55134;SDS011;41031;44.750;11.308;2023-03-29T16:45:30;4.07;;;2.30;;
55134;SDS011;41031;44.750;11.308;2023-03-29T16:47:57;5.00;;;2.73;;
55134;SDS011;41031;44.750;11.308;2023-03-29T16:50:24;7.73;;;3.53;;
55134;SDS011;41031;44.750;11.308;2023-03-29T16:52:51;4.97;;;2.70;;
55134;SDS011;41031;44.750;11.308;2023-03-29T16:55:19;5.90;;;2.77;;
55134;SDS011;41031;44.750;11.308;2023-03-29T16:57:46;5.83;;;2.40;;
55134;SDS011;41031;44.750;11.308;2023-03-29T17:00:15;6.23;;;2.77;;
55134;SDS011;41031;44.750;11.308;2023-03-29T17:02:45;8.13;;;3.20;;
55134;SDS011;41031;44.750;11.308;2023-03-29T17:05:15;4.77;;;2.67;;
55134;SDS011;41031;44.750;11.308;2023-03-29T17:07:42;4.20;;;2.80;;
55134;SDS011;41031;44.750;11.308;2023-03-29T17:10:10;3.17;;;2.70;;
55134;SDS011;41031;44.750;11.308;2023-03-29T17:12:38;4.27;;;2.60;;
55134;SDS011;41031;44.750;11.308;2023-03-29T17:15:05;5.80;;;2.73;;
55134;SDS011;41031;44.750;11.308;2023-03-29T17:17:33;4.27;;;2.80;;
55134;SDS011;41031;44.750;11.308;2023-03-29T17:20:00;3.97;;;2.97;;
55134;SDS011;41031;44.750;11.308;2023-03-29T17:22:27;8.30;;;3.40;;